createdAt,value
2022-08-03T00:01:27.077Z,3.05
2022-08-03T00:03:53.454Z,3.07
2022-08-03T00:06:19.818Z,3.08
2022-08-03T00:08:46.168Z,3.04
2022-08-03T00:11:12.528Z,3.02
2022-08-03T00:13:38.896Z,3.11
2022-08-03T00:16:05.267Z,3.18
2022-08-03T00:18:31.628Z,2.96
2022-08-03T00:20:57.986Z,2.98
2022-08-03T00:23:24.350Z,3.20
2022-08-03T00:25:50.705Z,3.17
2022-08-03T00:28:17.068Z,3.34
2022-08-03T00:30:43.426Z,2.96
2022-08-03T00:33:11.064Z,2.92
2022-08-03T00:35:50.642Z,3.20
2022-08-03T00:38:17.583Z,3.15
2022-08-03T00:40:43.941Z,3.25
2022-08-03T00:43:10.305Z,3.13
2022-08-03T00:45:36.706Z,3.31
2022-08-03T00:48:03.079Z,3.25
2022-08-03T00:50:29.440Z,3.03
2022-08-03T00:52:55.805Z,2.96
2022-08-03T00:55:22.169Z,3.09
2022-08-03T00:57:48.529Z,3.05
2022-08-03T01:00:14.885Z,3.11
2022-08-03T01:02:41.244Z,3.28
2022-08-03T01:05:07.606Z,2.98
2022-08-03T01:07:33.981Z,3.22
2022-08-03T01:10:00.343Z,2.98
2022-08-03T01:12:26.691Z,3.02
2022-08-03T01:14:53.037Z,3.08
2022-08-03T01:17:19.409Z,3.13
2022-08-03T01:19:45.776Z,3.12
2022-08-03T01:22:12.146Z,3.04
2022-08-03T01:24:38.505Z,3.36
2022-08-03T01:27:07.279Z,3.03
2022-08-03T01:29:33.636Z,3.21
2022-08-03T01:32:58.119Z,3.30
2022-08-03T01:34:46.361Z,3.16
2022-08-03T01:37:12.728Z,3.33
2022-08-03T01:39:39.088Z,3.00
2022-08-03T01:42:05.461Z,3.08
2022-08-03T01:44:31.828Z,3.26
2022-08-03T01:46:58.180Z,3.04
2022-08-03T01:49:24.597Z,3.06
2022-08-03T01:52:03.056Z,3.21
2022-08-03T01:54:30.123Z,3.26
2022-08-03T01:56:56.493Z,3.31
2022-08-03T01:59:22.846Z,3.10
2022-08-03T02:02:32.170Z,3.26
2022-08-03T02:04:35.535Z,3.20
2022-08-03T02:07:03.380Z,3.20
2022-08-03T02:09:29.947Z,3.24
2022-08-03T02:11:56.307Z,3.20
2022-08-03T02:14:22.653Z,3.13
2022-08-03T02:16:49.012Z,3.28
2022-08-03T02:19:15.382Z,3.21
2022-08-03T02:21:56.602Z,3.37
2022-08-03T02:24:27.320Z,3.11
2022-08-03T02:26:53.683Z,3.14
2022-08-03T02:29:20.032Z,3.02
2022-08-03T02:31:46.434Z,3.06
2022-08-03T02:34:12.805Z,2.97
2022-08-03T02:36:39.179Z,2.95
2022-08-03T02:39:05.537Z,3.13
2022-08-03T02:41:31.892Z,3.39
2022-08-03T02:44:06.979Z,3.06
2022-08-03T02:46:33.812Z,3.00
2022-08-03T02:49:00.197Z,3.11
2022-08-03T02:51:46.533Z,2.88
2022-08-03T02:54:12.904Z,2.98
2022-08-03T02:56:39.263Z,3.23
2022-08-03T02:59:05.623Z,3.18
2022-08-03T03:01:32.047Z,3.04
2022-08-03T03:03:58.445Z,3.11
2022-08-03T03:06:24.806Z,2.98
2022-08-03T03:08:59.520Z,3.11
2022-08-03T03:11:26.169Z,2.94
2022-08-03T03:13:52.521Z,3.02
2022-08-03T03:16:18.908Z,2.89
2022-08-03T03:18:45.274Z,2.93
2022-08-03T03:21:11.626Z,3.01
2022-08-03T03:23:37.980Z,3.18
2022-08-03T03:26:04.344Z,2.90
2022-08-03T03:28:31.164Z,2.81
2022-08-03T03:30:57.541Z,2.91
2022-08-03T03:33:23.917Z,3.05
2022-08-03T03:35:50.289Z,3.06
2022-08-03T03:38:16.648Z,3.01
2022-08-03T03:40:43.000Z,3.27
2022-08-03T03:43:09.347Z,3.07
2022-08-03T03:45:35.712Z,3.11
2022-08-03T03:48:02.078Z,3.23
2022-08-03T03:50:28.431Z,3.09
2022-08-03T03:52:54.776Z,3.00
2022-08-03T03:55:21.137Z,2.93
2022-08-03T03:57:47.500Z,3.22
2022-08-03T04:00:13.865Z,2.98
2022-08-03T04:02:40.224Z,2.90
2022-08-03T04:05:06.590Z,2.97
2022-08-03T04:07:32.959Z,2.91
2022-08-03T04:09:59.373Z,3.16
2022-08-03T04:12:35.252Z,3.28
2022-08-03T04:15:01.630Z,3.07
2022-08-03T04:17:27.998Z,2.90
2022-08-03T04:19:54.361Z,2.79
2022-08-03T04:22:20.733Z,2.96
2022-08-03T04:24:47.093Z,2.80
2022-08-03T04:27:13.444Z,2.96
2022-08-03T04:29:48.047Z,3.07
2022-08-03T04:32:15.124Z,2.76
2022-08-03T04:34:41.645Z,2.98
2022-08-03T04:37:08.008Z,2.76
2022-08-03T04:39:34.396Z,2.97
2022-08-03T04:42:07.417Z,3.11
2022-08-03T04:44:35.227Z,2.95
2022-08-03T04:47:01.586Z,3.50
2022-08-03T04:49:27.968Z,3.84
2022-08-03T04:51:54.376Z,4.09
2022-08-03T04:54:20.745Z,3.54
2022-08-03T04:56:47.110Z,3.65
2022-08-03T04:59:13.488Z,3.79
2022-08-03T05:01:39.887Z,4.06
2022-08-03T05:04:06.272Z,4.30
2022-08-03T05:06:32.628Z,4.54
2022-08-03T05:08:59.662Z,5.03
2022-08-03T05:11:26.157Z,5.27
2022-08-03T05:13:52.525Z,5.35
2022-08-03T05:16:18.895Z,5.03
2022-08-03T05:18:45.282Z,5.01
2022-08-03T05:21:11.645Z,5.28
2022-08-03T05:23:38.029Z,4.92
2022-08-03T05:26:04.383Z,5.17
2022-08-03T05:28:30.729Z,5.15
2022-08-03T05:30:57.089Z,5.46
2022-08-03T05:33:23.452Z,4.95
2022-08-03T05:36:00.819Z,5.19
2022-08-03T05:38:34.768Z,5.39
2022-08-03T05:41:21.457Z,5.07
2022-08-03T05:43:48.174Z,4.95
2022-08-03T05:46:14.540Z,4.91
2022-08-03T05:48:40.897Z,4.76
2022-08-03T05:51:07.261Z,4.70
2022-08-03T05:53:33.625Z,5.02
2022-08-03T05:56:03.559Z,5.00
2022-08-03T05:58:41.140Z,5.11
2022-08-03T06:01:07.572Z,4.89
2022-08-03T06:03:33.979Z,4.62
2022-08-03T06:06:00.791Z,4.86
2022-08-03T06:08:27.254Z,4.89
2022-08-03T06:10:53.630Z,4.64
2022-08-03T06:13:20.019Z,5.13
2022-08-03T06:15:46.379Z,5.04
2022-08-03T06:18:12.737Z,4.81
2022-08-03T06:20:39.085Z,4.52
2022-08-03T06:23:06.388Z,5.30
2022-08-03T06:25:33.986Z,4.44
2022-08-03T06:28:00.339Z,4.76
2022-08-03T06:30:26.819Z,4.79
2022-08-03T06:32:53.241Z,5.04
2022-08-03T06:35:19.606Z,4.85
2022-08-03T06:37:45.966Z,4.85
2022-08-03T06:40:13.809Z,4.68
2022-08-03T06:42:40.404Z,4.78
2022-08-03T06:45:06.764Z,4.76
2022-08-03T06:47:33.134Z,4.58
2022-08-03T06:50:16.151Z,4.54
2022-08-03T06:52:44.453Z,4.67
2022-08-03T06:55:10.830Z,4.57
2022-08-03T06:57:37.195Z,4.71
2022-08-03T07:00:08.850Z,4.77
2022-08-03T07:02:38.116Z,4.78
2022-08-03T07:05:05.472Z,4.89
2022-08-03T07:07:31.825Z,4.67
2022-08-03T07:09:58.452Z,4.61
2022-08-03T07:12:24.885Z,4.80
2022-08-03T07:14:51.247Z,4.71
2022-08-03T07:17:17.603Z,4.53
2022-08-03T07:19:43.965Z,4.60
2022-08-03T07:22:10.320Z,4.72
2022-08-03T07:24:36.688Z,4.92
2022-08-03T07:27:03.054Z,4.87
2022-08-03T07:29:29.414Z,4.90
2022-08-03T07:32:01.113Z,4.88
2022-08-03T07:34:27.469Z,4.73
2022-08-03T07:36:53.855Z,4.62
2022-08-03T07:39:20.216Z,4.46
2022-08-03T07:41:46.577Z,4.91
2022-08-03T07:44:12.932Z,4.48
2022-08-03T07:46:39.294Z,4.51
2022-08-03T07:49:05.751Z,4.62
2022-08-03T07:51:32.164Z,4.70
2022-08-03T07:53:58.527Z,4.66
2022-08-03T07:56:24.911Z,4.54
2022-08-03T07:58:51.279Z,4.40
2022-08-03T08:01:17.678Z,4.68
2022-08-03T08:03:52.912Z,4.23
2022-08-03T08:06:19.969Z,4.60
2022-08-03T08:08:46.467Z,4.34
2022-08-03T08:11:12.819Z,4.67
2022-08-03T08:13:39.172Z,4.36
2022-08-03T08:16:05.571Z,4.61
2022-08-03T08:18:31.929Z,4.60
2022-08-03T08:20:58.287Z,4.27
2022-08-03T08:23:42.700Z,4.25
2022-08-03T08:26:10.642Z,4.35
2022-08-03T08:28:37.023Z,4.48
2022-08-03T08:31:03.381Z,4.58
2022-08-03T08:33:47.987Z,4.16
2022-08-03T08:36:16.096Z,4.18
2022-08-03T08:38:42.476Z,4.27
2022-08-03T08:41:08.847Z,4.39
2022-08-03T08:43:35.206Z,4.48
2022-08-03T08:46:01.561Z,4.20
2022-08-03T08:48:27.921Z,4.24
2022-08-03T08:50:54.290Z,4.36
2022-08-03T08:53:26.797Z,3.99
2022-08-03T08:55:59.399Z,4.29
2022-08-03T08:58:26.596Z,3.92
2022-08-03T09:00:53.315Z,4.17
2022-08-03T09:03:26.198Z,3.99
2022-08-03T09:05:56.576Z,3.88
2022-08-03T09:08:23.006Z,3.75
2022-08-03T09:10:49.365Z,4.05
2022-08-03T09:13:15.723Z,3.89
2022-08-03T09:15:42.086Z,3.98
2022-08-03T09:18:26.885Z,4.10
2022-08-03T09:20:56.951Z,3.80
2022-08-03T09:23:44.605Z,3.84
2022-08-03T09:26:09.650Z,4.01
2022-08-03T09:29:01.558Z,3.99
2022-08-03T09:31:23.423Z,3.70
2022-08-03T09:33:49.791Z,3.77
2022-08-03T09:36:16.161Z,4.03
2022-08-03T09:38:42.512Z,3.91
2022-08-03T09:41:08.874Z,3.89
2022-08-03T09:43:35.223Z,3.81
2022-08-03T09:46:01.579Z,3.72
2022-08-03T09:48:27.936Z,3.76
2022-08-03T09:50:56.989Z,3.75
2022-08-03T09:53:25.309Z,3.78
2022-08-03T09:56:33.372Z,3.82
2022-08-03T09:58:38.012Z,3.52
2022-08-03T10:01:04.489Z,3.89
2022-08-03T10:03:31.740Z,3.59
2022-08-03T10:06:00.035Z,3.56
2022-08-03T10:08:26.596Z,3.41
2022-08-03T10:10:52.956Z,3.75
2022-08-03T10:13:19.307Z,3.72
2022-08-03T10:16:22.944Z,3.89
2022-08-03T10:18:32.000Z,3.61
2022-08-03T10:20:58.382Z,3.53
2022-08-03T10:23:24.752Z,3.98
2022-08-03T10:25:51.100Z,3.61
2022-08-03T10:28:17.455Z,3.40
2022-08-03T10:30:43.824Z,3.42
2022-08-03T10:33:12.337Z,3.92
2022-08-03T10:35:56.527Z,3.65
2022-08-03T10:38:22.893Z,3.56
2022-08-03T10:40:51.046Z,3.59
2022-08-03T10:43:18.980Z,3.80
2022-08-03T10:45:45.382Z,3.78
2022-08-03T10:48:11.757Z,3.60
2022-08-03T10:50:38.123Z,3.56
2022-08-03T10:53:04.489Z,3.37
2022-08-03T10:55:30.847Z,3.32
2022-08-03T10:57:58.853Z,3.42
2022-08-03T11:00:25.521Z,3.59
2022-08-03T11:02:51.911Z,3.59
2022-08-03T11:05:18.291Z,3.49
2022-08-03T11:07:47.388Z,3.47
2022-08-03T11:10:21.103Z,3.37
2022-08-03T11:12:47.464Z,3.30
2022-08-03T11:15:13.835Z,3.21
2022-08-03T11:17:46.349Z,3.26
2022-08-03T11:20:22.132Z,3.36
2022-08-03T11:22:48.491Z,3.70
2022-08-03T11:25:54.714Z,3.45
2022-08-03T11:28:01.185Z,3.46
2022-08-03T11:30:27.796Z,3.33
2022-08-03T11:32:54.246Z,3.43
2022-08-03T11:35:20.604Z,3.38
2022-08-03T11:38:04.418Z,3.31
2022-08-03T11:40:31.771Z,3.29
2022-08-03T11:42:58.146Z,3.40
2022-08-03T11:45:24.491Z,3.35
2022-08-03T11:47:51.552Z,3.29
2022-08-03T11:50:18.026Z,3.53
2022-08-03T11:52:44.395Z,3.43
2022-08-03T11:55:10.777Z,3.31
2022-08-03T11:59:01.490Z,3.46
2022-08-03T12:00:23.543Z,3.39
2022-08-03T12:02:52.341Z,3.25
2022-08-03T12:05:18.733Z,3.32
2022-08-03T12:08:03.779Z,3.20
2022-08-03T12:10:30.856Z,3.16
2022-08-03T12:12:57.216Z,3.19
2022-08-03T12:15:23.584Z,3.21
2022-08-03T12:17:51.250Z,3.18
2022-08-03T12:20:19.113Z,3.43
2022-08-03T12:22:45.470Z,3.34
2022-08-03T12:25:11.827Z,3.12
2022-08-03T12:27:38.198Z,3.28
2022-08-03T12:30:04.571Z,3.16
2022-08-03T12:32:30.939Z,3.08
2022-08-03T12:34:57.301Z,3.10
2022-08-03T12:37:23.951Z,3.15
2022-08-03T12:40:02.289Z,3.19
2022-08-03T12:42:30.531Z,3.18
2022-08-03T12:44:56.888Z,3.09
2022-08-03T12:47:23.251Z,3.12
2022-08-03T12:49:49.617Z,3.05
2022-08-03T12:52:15.991Z,3.05
2022-08-03T12:54:42.360Z,2.98
2022-08-03T12:57:08.721Z,3.07
2022-08-03T12:59:40.791Z,3.24
2022-08-03T13:02:09.671Z,2.96
2022-08-03T13:04:36.240Z,3.36
2022-08-03T13:07:03.400Z,3.22
2022-08-03T13:09:29.986Z,3.07
2022-08-03T13:12:02.239Z,2.89
2022-08-03T13:14:28.995Z,2.89
2022-08-03T13:16:55.362Z,2.96
2022-08-03T13:19:21.730Z,3.00
2022-08-03T13:22:03.344Z,2.96
2022-08-03T13:24:31.659Z,3.02
2022-08-03T13:26:58.301Z,3.03
2022-08-03T13:29:24.655Z,3.03
2022-08-03T13:31:51.401Z,3.06
2022-08-03T13:34:22.251Z,2.92
2022-08-03T13:39:58.025Z,2.84
2022-08-03T13:42:22.372Z,3.09
2022-08-03T13:44:48.730Z,2.88
2022-08-03T13:47:15.096Z,2.85
2022-08-03T13:49:41.457Z,2.93
2022-08-03T13:52:07.830Z,2.68
2022-08-03T13:54:34.193Z,3.08
2022-08-03T13:58:01.028Z,3.07
2022-08-03T13:59:46.894Z,2.96
2022-08-03T14:02:13.320Z,2.79
2022-08-03T14:04:39.709Z,2.85
2022-08-03T14:07:06.087Z,3.02
2022-08-03T14:09:32.452Z,2.95
2022-08-03T14:12:06.946Z,2.84
2022-08-03T14:14:34.227Z,2.81
2022-08-03T14:17:00.596Z,2.87
2022-08-03T14:19:26.953Z,2.83
2022-08-03T14:22:06.073Z,2.95
2022-08-03T14:24:33.238Z,2.94
2022-08-03T14:27:07.120Z,2.76
2022-08-03T14:29:35.481Z,2.58
2022-08-03T14:32:10.874Z,2.84
2022-08-03T14:34:39.148Z,2.96
2022-08-03T14:37:05.511Z,2.88
2022-08-03T14:39:58.271Z,3.02
2022-08-03T14:42:18.251Z,2.78
2022-08-03T14:44:44.619Z,2.97
2022-08-03T14:47:10.976Z,2.83
2022-08-03T14:50:38.969Z,2.93
2022-08-03T14:52:23.689Z,2.84
2022-08-03T14:54:50.055Z,2.76
2022-08-03T14:57:16.418Z,2.76
2022-08-03T14:59:55.516Z,2.90
2022-08-03T15:02:24.074Z,2.82
2022-08-03T15:04:50.747Z,2.89
2022-08-03T15:07:17.233Z,2.77
2022-08-03T15:09:43.695Z,2.85
2022-08-03T15:12:10.053Z,2.61
2022-08-03T15:14:37.918Z,2.66
2022-08-03T15:17:04.378Z,2.83
2022-08-03T15:20:01.640Z,2.81
2022-08-03T15:22:17.102Z,2.82
2022-08-03T15:24:46.949Z,2.74
2022-08-03T15:27:13.307Z,2.57
2022-08-03T15:30:08.133Z,2.83
2022-08-03T15:32:26.379Z,2.65
2022-08-03T15:34:52.817Z,2.68
2022-08-03T15:37:19.193Z,2.65
2022-08-03T15:40:00.017Z,2.74
2022-08-03T15:42:27.074Z,2.51
2022-08-03T15:44:53.840Z,2.81
2022-08-03T15:47:21.350Z,2.56
2022-08-03T15:49:47.913Z,3.01
2022-08-03T15:52:14.312Z,2.98
2022-08-03T15:54:40.675Z,2.96
2022-08-03T15:57:07.044Z,2.85
2022-08-03T15:59:33.397Z,2.81
2022-08-03T16:01:59.827Z,2.85
2022-08-03T16:04:26.226Z,2.94
2022-08-03T16:06:52.584Z,3.10
2022-08-03T16:09:23.949Z,3.05
2022-08-03T16:12:05.285Z,2.87
2022-08-03T16:14:51.190Z,3.13
2022-08-03T16:17:18.773Z,3.11
2022-08-03T16:19:45.315Z,3.02
2022-08-03T16:22:11.689Z,2.94
2022-08-03T16:24:40.700Z,3.04
2022-08-03T16:27:17.285Z,2.92
2022-08-03T16:29:53.404Z,3.25
2022-08-03T16:32:19.754Z,3.15
2022-08-03T16:34:46.118Z,2.94
2022-08-03T16:37:37.146Z,2.90
2022-08-03T16:39:58.865Z,3.14
2022-08-03T16:42:25.239Z,2.87
2022-08-03T16:44:51.602Z,3.05
2022-08-03T16:47:21.833Z,3.04
2022-08-03T16:49:54.748Z,2.92
2022-08-03T16:52:22.910Z,3.01
2022-08-03T16:54:52.606Z,2.79
2022-08-03T16:57:56.427Z,2.86
2022-08-03T17:00:06.067Z,3.09
2022-08-03T17:02:32.473Z,3.17
2022-08-03T17:04:58.883Z,2.91
2022-08-03T17:07:26.027Z,2.82
2022-08-03T17:09:56.243Z,3.03
2022-08-03T17:12:22.917Z,3.07
2022-08-03T17:14:53.152Z,2.92
2022-08-03T17:17:19.512Z,3.15
2022-08-03T17:19:47.472Z,2.78
2022-08-03T17:22:20.591Z,2.86
2022-08-03T17:24:48.464Z,3.03
2022-08-03T17:28:41.602Z,2.81
2022-08-03T17:30:01.164Z,3.09
2022-08-03T17:32:29.035Z,3.13
2022-08-03T17:34:56.148Z,2.97
2022-08-03T17:37:27.237Z,3.03
2022-08-03T17:40:08.885Z,3.21
2022-08-03T17:42:35.333Z,3.02
2022-08-03T17:45:03.957Z,3.01
2022-08-03T17:47:42.653Z,3.06
2022-08-03T17:50:09.816Z,3.01
2022-08-03T17:52:51.812Z,2.96
2022-08-03T17:55:55.169Z,3.17
2022-08-03T17:58:04.538Z,2.83
2022-08-03T18:00:30.905Z,2.87
2022-08-03T18:02:57.873Z,3.10
2022-08-03T18:06:10.540Z,3.17
2022-08-03T18:08:12.854Z,3.10
2022-08-03T18:10:49.766Z,3.30
2022-08-03T18:13:16.514Z,3.26
2022-08-03T18:15:42.877Z,3.20
2022-08-03T18:18:10.949Z,3.19
2022-08-03T18:20:41.538Z,3.18
2022-08-03T18:23:08.820Z,3.42
2022-08-03T18:25:42.367Z,3.27
2022-08-03T18:28:12.241Z,3.34
2022-08-03T18:30:39.101Z,3.31
2022-08-03T18:34:19.400Z,3.16
2022-08-03T18:36:07.518Z,3.13
2022-08-03T18:38:35.567Z,3.12
2022-08-03T18:41:01.965Z,3.11
2022-08-03T18:43:46.497Z,3.17
2022-08-03T18:46:13.807Z,3.30
2022-08-03T18:48:40.627Z,2.93
2022-08-03T18:51:12.472Z,3.25
2022-08-03T18:54:03.149Z,3.36
2022-08-03T18:56:31.905Z,3.11
2022-08-03T18:59:02.499Z,3.13
2022-08-03T19:02:00.914Z,3.33
2022-08-03T19:04:15.472Z,3.02
2022-08-03T19:06:43.390Z,3.16
2022-08-03T19:09:10.788Z,3.48
2022-08-03T19:11:37.149Z,3.47
2022-08-03T19:14:28.678Z,3.72
2022-08-03T19:16:55.777Z,3.66
2022-08-03T19:19:22.139Z,3.66
2022-08-03T19:21:51.070Z,3.62
2022-08-03T19:24:17.420Z,4.00
2022-08-03T19:26:48.548Z,4.41
2022-08-03T19:29:18.542Z,5.82
2022-08-03T19:31:59.004Z,6.53
2022-08-03T19:34:35.086Z,7.06
2022-08-03T19:37:04.420Z,6.02
2022-08-03T19:39:33.669Z,6.66
2022-08-03T19:42:08.027Z,6.34
2022-08-03T19:44:34.640Z,6.09
2022-08-03T19:47:01.148Z,6.43
2022-08-03T19:49:57.698Z,6.36
2022-08-03T19:52:14.047Z,6.20
2022-08-03T19:54:52.906Z,6.15
2022-08-03T19:57:20.055Z,5.57
2022-08-03T19:59:50.008Z,5.89
2022-08-03T20:02:17.478Z,5.67
2022-08-03T20:04:53.725Z,5.93
2022-08-03T20:07:22.750Z,5.89
2022-08-03T20:09:49.423Z,5.71
2022-08-03T20:12:27.361Z,5.72
2022-08-03T20:14:55.058Z,5.66
2022-08-03T20:17:22.722Z,5.77
2022-08-03T20:20:09.057Z,5.40
2022-08-03T20:22:35.408Z,5.28
2022-08-03T20:25:05.520Z,5.16
2022-08-03T20:27:31.879Z,5.38
2022-08-03T20:30:18.217Z,5.18
2022-08-03T20:32:52.746Z,5.23
2022-08-03T20:35:19.118Z,5.01
2022-08-03T20:37:46.635Z,5.26
2022-08-03T20:40:12.991Z,5.25
2022-08-03T20:42:40.628Z,5.36
2022-08-03T20:45:07.002Z,5.17
2022-08-03T20:47:41.680Z,5.06
2022-08-03T20:50:17.359Z,5.07
2022-08-03T20:52:49.328Z,4.90
2022-08-03T20:55:16.240Z,4.85
2022-08-03T20:57:42.600Z,5.12
2022-08-03T21:00:17.970Z,5.08
2022-08-03T21:02:44.332Z,4.88
2022-08-03T21:05:10.695Z,4.95
2022-08-03T21:08:04.222Z,4.65
2022-08-03T21:10:27.842Z,4.83
2022-08-03T21:13:13.049Z,5.08
2022-08-03T21:16:04.863Z,4.93
2022-08-03T21:18:28.151Z,4.72
2022-08-03T21:20:55.473Z,4.84
2022-08-03T21:23:39.764Z,4.78
2022-08-03T21:26:08.188Z,4.62
2022-08-03T21:28:34.546Z,4.54
2022-08-03T21:31:00.906Z,4.33
2022-08-03T21:33:27.264Z,4.52
2022-08-03T21:35:53.615Z,4.35
2022-08-03T21:38:19.974Z,4.47
2022-08-03T21:40:46.334Z,4.27
2022-08-03T21:43:15.622Z,4.18
2022-08-03T21:45:41.995Z,4.10
2022-08-03T21:48:08.356Z,3.83
2022-08-03T21:50:34.737Z,3.91
2022-08-03T21:53:01.146Z,3.29
2022-08-03T21:55:27.508Z,3.33
2022-08-03T21:57:53.872Z,3.41
2022-08-03T22:00:20.246Z,3.22
2022-08-03T22:02:51.679Z,3.21
2022-08-03T22:05:28.841Z,2.85
2022-08-03T22:08:08.367Z,2.85
2022-08-03T22:10:34.738Z,2.86
2022-08-03T22:13:01.107Z,2.72
2022-08-03T22:15:27.458Z,3.02
2022-08-03T22:17:57.145Z,2.88
2022-08-03T22:20:23.835Z,2.84
2022-08-03T22:22:55.174Z,2.75
2022-08-03T22:25:22.744Z,2.64
2022-08-03T22:27:49.100Z,2.47
2022-08-03T22:30:15.458Z,2.28
2022-08-03T22:32:41.817Z,2.30
2022-08-03T22:35:08.182Z,2.49
2022-08-03T22:37:34.554Z,2.68
2022-08-03T22:40:00.921Z,2.59
2022-08-03T22:42:27.301Z,2.63
2022-08-03T22:44:53.661Z,2.32
2022-08-03T22:47:22.725Z,2.16
2022-08-03T22:49:49.524Z,2.31
2022-08-03T22:52:35.877Z,2.13
2022-08-03T22:55:02.244Z,2.29
2022-08-03T22:57:28.608Z,2.18
2022-08-03T22:59:54.968Z,2.19
2022-08-03T23:02:21.816Z,1.95
2022-08-03T23:04:48.234Z,1.87
2022-08-03T23:07:14.623Z,2.11
2022-08-03T23:09:40.972Z,2.10
2022-08-03T23:12:07.319Z,2.15
2022-08-03T23:14:33.689Z,2.20
2022-08-03T23:17:00.069Z,2.10
2022-08-03T23:19:26.456Z,2.42
2022-08-03T23:22:02.878Z,2.31
2022-08-03T23:24:30.498Z,2.07
2022-08-03T23:26:56.932Z,2.14
2022-08-03T23:29:23.298Z,2.22
2022-08-03T23:31:49.664Z,2.04
2022-08-03T23:34:16.753Z,2.31
2022-08-03T23:36:43.276Z,2.22
2022-08-03T23:39:09.809Z,2.18
2022-08-03T23:41:36.225Z,2.14
2022-08-03T23:44:02.601Z,2.09
2022-08-03T23:46:30.128Z,2.13
2022-08-03T23:48:56.771Z,2.00
2022-08-03T23:51:23.209Z,2.12
2022-08-03T23:53:49.575Z,2.03
2022-08-03T23:56:15.934Z,1.92
2022-08-03T23:58:42.300Z,2.13
